createdAt,value
2024-01-19T00:07:10.133Z,99348.27
2024-01-19T00:16:44.734Z,99371.92
2024-01-19T00:26:17.221Z,99376.81
2024-01-19T00:35:49.943Z,99389.02
2024-01-19T00:45:21.087Z,99392.48
2024-01-19T00:54:54.337Z,99407.07
2024-01-19T01:04:27.103Z,99416.77
2024-01-19T01:14:01.530Z,99423.84
2024-01-19T01:23:34.151Z,99452.08
2024-01-19T01:33:05.719Z,99466.86
2024-01-19T01:42:39.863Z,99487.40
2024-01-19T01:52:12.913Z,99517.80
2024-01-19T02:01:45.587Z,99532.01
2024-01-19T02:11:18.291Z,99520.25
2024-01-19T02:20:49.427Z,99525.50
2024-01-19T02:30:22.335Z,99546.73
2024-01-19T02:39:56.735Z,99546.27
2024-01-19T02:49:29.792Z,99558.15
2024-01-19T02:59:02.090Z,99564.56
2024-01-19T03:08:34.688Z,99567.23
2024-01-19T03:18:05.608Z,99544.36
2024-01-19T03:27:38.893Z,99550.62
2024-01-19T03:37:13.288Z,99562.97
2024-01-19T03:46:46.326Z,99591.28
2024-01-19T03:56:18.127Z,99596.82
2024-01-19T04:05:51.574Z,99595.08
2024-01-19T04:15:24.383Z,99605.22
2024-01-19T04:24:57.072Z,99625.00
2024-01-19T04:34:31.619Z,99617.05
2024-01-19T04:44:04.588Z,99616.34
2024-01-19T04:53:35.579Z,99629.06
2024-01-19T05:03:10.727Z,99641.66
2024-01-19T05:12:41.815Z,99660.03
2024-01-19T05:22:15.022Z,99662.81
2024-01-19T05:31:48.411Z,99669.77
2024-01-19T05:41:21.751Z,99702.92
2024-01-19T05:50:54.591Z,99714.05
2024-01-19T06:00:27.518Z,99724.70
2024-01-19T06:10:00.947Z,99742.46
2024-01-19T06:19:34.092Z,99762.27
2024-01-19T06:29:07.153Z,99781.36
2024-01-19T06:38:40.341Z,99803.53
2024-01-19T06:48:13.820Z,99812.80
2024-01-19T06:57:46.948Z,99828.79
2024-01-19T07:07:21.536Z,99846.06
2024-01-19T07:16:52.405Z,99865.14
2024-01-19T07:26:25.615Z,99870.52
2024-01-19T07:36:00.511Z,99881.47
2024-01-19T07:45:31.618Z,99883.52
2024-01-19T07:55:04.735Z,99906.86
2024-01-19T08:04:39.870Z,99913.22
2024-01-19T08:14:10.884Z,99938.16
2024-01-19T08:23:44.302Z,99946.64
2024-01-19T08:33:17.864Z,99951.55
2024-01-19T08:42:51.522Z,99999.18
2024-01-19T08:52:24.493Z,99989.34
2024-01-19T09:01:58.025Z,100022.56
2024-01-19T09:11:32.251Z,100035.63
2024-01-19T09:21:07.387Z,100036.15
2024-01-19T09:30:41.052Z,100050.33
2024-01-19T09:40:12.956Z,100078.03
2024-01-19T09:49:46.370Z,100104.28
2024-01-19T09:59:19.821Z,100109.02
2024-01-19T10:08:53.512Z,100103.38
2024-01-19T10:18:28.676Z,100135.20
2024-01-19T10:28:00.427Z,100136.66
2024-01-19T10:37:35.374Z,100152.80
2024-01-19T10:47:07.977Z,100151.36
2024-01-19T10:56:40.516Z,100157.69
2024-01-19T11:06:15.625Z,100178.33
2024-01-19T11:15:49.292Z,100181.77
2024-01-19T11:25:20.766Z,100165.16
2024-01-19T11:34:55.296Z,100168.60
2024-01-19T11:44:26.506Z,100175.96
2024-01-19T11:54:00.405Z,100184.86
2024-01-19T12:03:35.957Z,100193.45
2024-01-19T12:13:07.961Z,100196.39
2024-01-19T12:22:41.169Z,100199.50
2024-01-19T12:32:16.294Z,100198.59
2024-01-19T12:41:48.208Z,100200.88
2024-01-19T12:51:22.537Z,100190.97
2024-01-19T13:00:55.525Z,100186.14
2024-01-19T13:10:28.832Z,100187.26
2024-01-19T13:20:00.616Z,100189.82
2024-01-19T13:29:35.790Z,100196.30
2024-01-19T13:39:07.534Z,100205.38
2024-01-19T13:48:40.630Z,100222.42
2024-01-19T13:58:16.320Z,100225.45
2024-01-19T14:07:49.518Z,100215.22
2024-01-19T14:17:21.318Z,100237.70
2024-01-19T14:26:56.447Z,100246.81
2024-01-19T14:36:29.884Z,100254.14
2024-01-19T14:46:03.062Z,100265.23
2024-01-19T14:55:34.798Z,100271.19
2024-01-19T15:05:07.946Z,100280.95
2024-01-19T15:14:41.146Z,100299.91
2024-01-19T15:24:14.474Z,100320.59
2024-01-19T15:33:47.661Z,100327.85
2024-01-19T15:43:20.577Z,100348.81
2024-01-19T15:52:54.908Z,100363.83
2024-01-19T16:02:25.765Z,100373.17
2024-01-19T16:11:58.417Z,100393.67
2024-01-19T16:21:31.073Z,100406.95
2024-01-19T16:31:03.469Z,100436.52
2024-01-19T16:40:38.110Z,100439.17
2024-01-19T16:50:11.591Z,100456.42
2024-01-19T16:59:43.017Z,100461.22
2024-01-19T17:09:16.409Z,100474.66
2024-01-19T17:18:49.816Z,100482.81
2024-01-19T17:28:23.517Z,100485.02
2024-01-19T17:37:58.719Z,100486.31
2024-01-19T17:47:31.338Z,100489.13
2024-01-19T17:57:04.201Z,100503.91
2024-01-19T18:06:36.875Z,100526.69
2024-01-19T18:16:07.701Z,100527.91
2024-01-19T18:25:40.542Z,100544.72
2024-01-19T18:35:15.122Z,100560.86
2024-01-19T18:44:46.671Z,100571.14
2024-01-19T18:54:21.631Z,100590.98
2024-01-19T19:03:54.000Z,100602.91
2024-01-19T19:13:26.909Z,100627.55
2024-01-19T19:22:59.746Z,100635.48
2024-01-19T19:32:32.570Z,100651.22
2024-01-19T19:42:03.620Z,100666.70
2024-01-19T19:51:38.129Z,100686.20
2024-01-19T20:01:09.991Z,100692.92
2024-01-19T20:10:44.755Z,100692.47
2024-01-19T20:20:16.336Z,100696.11
2024-01-19T20:29:48.959Z,100688.47
2024-01-19T20:39:21.475Z,100693.22
2024-01-19T20:48:56.407Z,100698.24
2024-01-19T20:58:29.160Z,100706.75
2024-01-19T21:08:00.528Z,100711.44
2024-01-19T21:17:33.787Z,100708.31
2024-01-19T21:27:06.450Z,100715.86
2024-01-19T21:36:39.397Z,100711.46
2024-01-19T21:46:12.371Z,100729.45
2024-01-19T21:55:45.139Z,100733.42
2024-01-19T22:05:18.523Z,100739.34
2024-01-19T22:14:53.249Z,100740.42
2024-01-19T22:24:26.111Z,100761.48
2024-01-19T22:33:59.019Z,100770.94
2024-01-19T22:43:31.670Z,100782.95
2024-01-19T22:53:03.113Z,100795.96
2024-01-19T23:02:36.013Z,100799.50
2024-01-19T23:12:08.725Z,100792.80
2024-01-19T23:21:41.426Z,100782.34
2024-01-19T23:31:15.940Z,100791.27
2024-01-19T23:40:47.160Z,100783.02
2024-01-19T23:50:20.239Z,100798.58
2024-01-19T23:59:53.623Z,100798.91
